Neftekamsk, Russia
Current Conditions -  °F | °C
As of 8:00 AM on Sunday 26 Oct 2014 (Local Time) from UWKE Reporting Station
Few Clouds Few Clouds  
Wind Chill: -5°   Ceiling: Unl
Heat Index: 10°   Visibility: 6mi
Dew Point:   Wind: 13mph
Humidity: 85%   Direction: 330°NNW
Pressure: 30.42"   Gusts: NA
Location:  56.08°N, 54.27°E
Report Text: UWKE 260300Z 33006MPS 9999 FEW020 M12/M14 Q1030 NOSIG RMKQFE755/1007 03090070
Loading
Personal Weather Stations






























Interactive Weather Map
Tropical Storm Tracking
New forecast layout! Learn more

10-Day Weather Forecast

Advertisements
Track Severe Weather on mobile